createdAt,value
2019-01-23T00:02:19.626Z,-3.40
2019-01-23T00:04:46.264Z,-3.40
2019-01-23T00:07:12.900Z,-3.40
2019-01-23T00:09:39.457Z,-3.50
2019-01-23T00:12:06.291Z,-3.50
2019-01-23T00:14:33.037Z,-3.50
2019-01-23T00:16:59.776Z,-3.50
2019-01-23T00:19:26.520Z,-3.50
2019-01-23T00:21:53.252Z,-3.40
2019-01-23T00:24:20.001Z,-3.40
2019-01-23T00:26:46.434Z,-3.40
2019-01-23T00:29:13.076Z,-3.40
2019-01-23T00:31:39.607Z,-3.60
2019-01-23T00:34:06.263Z,-3.60
2019-01-23T00:36:32.790Z,-3.60
2019-01-23T00:38:59.432Z,-3.50
2019-01-23T00:41:26.080Z,-3.50
2019-01-23T00:43:52.905Z,-3.60
2019-01-23T00:46:19.676Z,-3.80
2019-01-23T00:48:46.328Z,-3.60
2019-01-23T00:51:12.941Z,-3.60
2019-01-23T00:53:40.393Z,-3.70
2019-01-23T00:56:06.905Z,-3.70
2019-01-23T00:58:33.962Z,-3.70
2019-01-23T01:01:01.763Z,-3.70
2019-01-23T01:03:28.625Z,-3.70
2019-01-23T01:05:55.151Z,-3.70
2019-01-23T01:08:21.716Z,-3.70
2019-01-23T01:10:48.142Z,-3.80
2019-01-23T01:13:14.693Z,-3.80
2019-01-23T01:15:41.255Z,-3.80
2019-01-23T01:18:07.880Z,-3.80
2019-01-23T01:20:34.430Z,-3.80
2019-01-23T01:23:00.952Z,-3.70
2019-01-23T01:25:27.404Z,-3.70
2019-01-23T01:27:53.919Z,-3.80
2019-01-23T01:30:22.404Z,-3.90
2019-01-23T01:32:48.834Z,-3.80
2019-01-23T01:35:15.485Z,-3.80
2019-01-23T01:37:42.004Z,-3.80
2019-01-23T01:40:12.563Z,-3.80
2019-01-23T01:42:39.265Z,-3.80
2019-01-23T01:45:07.634Z,-3.80
2019-01-23T01:47:34.841Z,-4.00
2019-01-23T01:50:06.107Z,-4.00
2019-01-23T01:52:32.636Z,-4.20
2019-01-23T01:54:59.194Z,-4.00
2019-01-23T01:57:25.709Z,-4.10
2019-01-23T01:59:52.262Z,-4.10
2019-01-23T02:02:18.775Z,-4.10
2019-01-23T02:04:45.425Z,-4.00
2019-01-23T02:07:12.000Z,-3.90
2019-01-23T02:09:38.457Z,-4.00
2019-01-23T02:12:04.981Z,-4.10
2019-01-23T02:14:31.421Z,-4.10
2019-01-23T02:16:57.944Z,-4.20
2019-01-23T02:19:24.477Z,-4.10
2019-01-23T02:21:50.995Z,-4.10
2019-01-23T02:24:17.539Z,-4.20
2019-01-23T02:26:44.161Z,-4.20
2019-01-23T02:29:10.914Z,-4.10
2019-01-23T02:31:37.528Z,-4.30
2019-01-23T02:34:04.148Z,-4.50
2019-01-23T02:36:30.702Z,-4.30
2019-01-23T02:38:57.211Z,-4.30
2019-01-23T02:41:23.761Z,-4.20
2019-01-23T02:43:50.297Z,-4.30
2019-01-23T02:46:16.830Z,-4.40
2019-01-23T02:48:43.354Z,-4.20
2019-01-23T02:51:09.915Z,-4.20
2019-01-23T02:53:36.421Z,-4.20
2019-01-23T02:56:03.468Z,-4.30
2019-01-23T02:58:30.148Z,-4.40
2019-01-23T03:00:56.697Z,-4.40
2019-01-23T03:03:24.222Z,-4.30
2019-01-23T03:05:50.863Z,-4.40
2019-01-23T03:08:18.288Z,-4.30
2019-01-23T03:10:44.848Z,-4.30
2019-01-23T03:13:11.569Z,-4.40
2019-01-23T03:15:38.208Z,-4.50
2019-01-23T03:18:04.744Z,-4.60
2019-01-23T03:20:31.292Z,-4.60
2019-01-23T03:22:57.845Z,-4.70
2019-01-23T03:25:24.402Z,-4.70
2019-01-23T03:27:50.921Z,-4.60
2019-01-23T03:30:19.489Z,-4.60
2019-01-23T03:32:46.306Z,-4.50
2019-01-23T03:35:13.045Z,-4.60
2019-01-23T03:37:39.764Z,-4.50
2019-01-23T03:40:14.602Z,-4.50
2019-01-23T03:42:41.109Z,-4.60
2019-01-23T03:45:09.766Z,-4.60
2019-01-23T03:47:36.381Z,-4.50
2019-01-23T03:50:10.049Z,-4.40
2019-01-23T03:52:37.699Z,-4.40
2019-01-23T03:55:07.720Z,-4.50
2019-01-23T03:57:35.482Z,-4.60
2019-01-23T04:00:05.506Z,-4.60
2019-01-23T04:02:32.051Z,-4.80
2019-01-23T04:04:58.567Z,-4.70
2019-01-23T04:07:25.319Z,-4.60
2019-01-23T04:09:52.738Z,-4.60
2019-01-23T04:12:19.386Z,-4.50
2019-01-23T04:14:46.013Z,-4.60
2019-01-23T04:17:12.592Z,-4.60
2019-01-23T04:19:39.105Z,-4.60
2019-01-23T04:22:05.722Z,-4.60
2019-01-23T04:24:32.426Z,-4.60
2019-01-23T04:26:59.676Z,-4.60
2019-01-23T04:29:26.427Z,-4.70
2019-01-23T04:31:53.067Z,-4.70
2019-01-23T04:34:19.635Z,-4.70
2019-01-23T04:36:46.267Z,-4.80
2019-01-23T04:39:12.911Z,-4.90
2019-01-23T04:41:39.537Z,-4.90
2019-01-23T04:44:07.691Z,-4.90
2019-01-23T04:46:34.426Z,-4.70
2019-01-23T04:49:01.982Z,-4.60
2019-01-23T04:51:34.053Z,-4.70
2019-01-23T04:54:01.818Z,-4.80
2019-01-23T04:56:28.350Z,-4.90
2019-01-23T04:58:55.001Z,-5.00
2019-01-23T05:01:21.834Z,-5.00
2019-01-23T05:03:48.485Z,-5.00
2019-01-23T05:06:15.837Z,-5.00
2019-01-23T05:08:42.425Z,-4.90
2019-01-23T05:11:08.956Z,-5.00
2019-01-23T05:13:35.535Z,-5.00
2019-01-23T05:16:02.053Z,-5.00
2019-01-23T05:18:28.601Z,-4.90
2019-01-23T05:20:55.209Z,-5.10
2019-01-23T05:23:21.872Z,-5.10
2019-01-23T05:25:48.393Z,-5.10
2019-01-23T05:28:16.854Z,-5.00
2019-01-23T05:30:45.086Z,-5.00
2019-01-23T05:33:11.630Z,-4.90
2019-01-23T05:35:39.849Z,-5.00
2019-01-23T05:38:06.505Z,-5.10
2019-01-23T05:40:33.029Z,-5.00
2019-01-23T05:42:59.579Z,-5.10
2019-01-23T05:45:26.237Z,-5.20
2019-01-23T05:47:53.448Z,-5.00
2019-01-23T05:50:20.221Z,-5.10
2019-01-23T05:52:48.035Z,-5.20
2019-01-23T05:55:14.889Z,-5.20
2019-01-23T05:57:43.313Z,-5.20
2019-01-23T06:00:12.982Z,-5.30
2019-01-23T06:02:39.618Z,-5.20
2019-01-23T06:05:07.996Z,-5.20
2019-01-23T06:07:34.721Z,-5.30
2019-01-23T06:10:02.075Z,-5.30
2019-01-23T06:12:28.803Z,-5.30
2019-01-23T06:14:55.350Z,-5.20
2019-01-23T06:17:22.876Z,-5.10
2019-01-23T06:19:49.549Z,-5.20
2019-01-23T06:22:16.155Z,-5.30
2019-01-23T06:24:42.705Z,-5.00
2019-01-23T06:27:09.336Z,-5.10
2019-01-23T06:29:35.983Z,-5.00
2019-01-23T06:32:02.821Z,-5.00
2019-01-23T06:34:29.375Z,-5.10
2019-01-23T06:36:56.001Z,-5.20
2019-01-23T06:39:22.548Z,-5.10
2019-01-23T06:41:49.204Z,-5.10
2019-01-23T06:44:15.834Z,-5.20
2019-01-23T06:46:42.462Z,-5.00
2019-01-23T06:49:09.121Z,-5.10
2019-01-23T06:51:36.445Z,-5.20
2019-01-23T06:54:03.253Z,-5.30
2019-01-23T06:56:30.382Z,-5.30
2019-01-23T06:58:57.022Z,-5.30
2019-01-23T07:01:24.548Z,-5.30
2019-01-23T07:03:52.104Z,-5.30
2019-01-23T07:06:18.822Z,-5.20
2019-01-23T07:08:45.574Z,-5.20
2019-01-23T07:11:12.185Z,-5.40
2019-01-23T07:13:38.843Z,-5.40
2019-01-23T07:16:05.504Z,-5.20
2019-01-23T07:18:32.136Z,-5.40
2019-01-23T07:20:58.833Z,-5.40
2019-01-23T07:23:25.361Z,-5.50
2019-01-23T07:25:51.913Z,-5.50
2019-01-23T07:28:18.436Z,-5.40
2019-01-23T07:30:45.097Z,-5.30
2019-01-23T07:33:11.623Z,-5.30
2019-01-23T07:35:38.178Z,-5.30
2019-01-23T07:38:04.846Z,-5.20
2019-01-23T07:40:31.607Z,-5.20
2019-01-23T07:42:58.130Z,-4.90
2019-01-23T07:45:26.285Z,-5.00
2019-01-23T07:47:52.914Z,-4.90
2019-01-23T07:50:19.610Z,-4.90
2019-01-23T07:52:46.332Z,-4.80
2019-01-23T07:55:15.185Z,-4.70
2019-01-23T07:57:43.593Z,-4.60
2019-01-23T08:00:18.309Z,-4.50
2019-01-23T08:02:45.634Z,-4.60
2019-01-23T08:05:19.563Z,-4.80
2019-01-23T08:07:44.825Z,-4.70
2019-01-23T08:10:14.286Z,-4.70
2019-01-23T08:12:50.366Z,-4.90
2019-01-23T08:15:23.057Z,-4.90
2019-01-23T08:17:49.574Z,-4.80
2019-01-23T08:20:20.844Z,-4.90
2019-01-23T08:22:47.490Z,-4.80
2019-01-23T08:25:14.643Z,-4.80
2019-01-23T08:27:41.169Z,-4.60
2019-01-23T08:30:11.328Z,-4.90
2019-01-23T08:32:37.946Z,-4.80
2019-01-23T08:35:05.910Z,-4.60
2019-01-23T08:37:32.523Z,-4.70
2019-01-23T08:39:59.177Z,-4.60
2019-01-23T08:42:25.890Z,-4.60
2019-01-23T08:44:52.536Z,-4.40
2019-01-23T08:47:19.166Z,-4.40
2019-01-23T08:49:45.896Z,-4.40
2019-01-23T08:52:12.530Z,-4.50
2019-01-23T08:54:39.177Z,-4.20
2019-01-23T08:57:05.710Z,-4.20
2019-01-23T08:59:32.255Z,-4.20
2019-01-23T09:01:58.772Z,-4.20
2019-01-23T09:04:25.326Z,-4.20
2019-01-23T09:06:51.840Z,-4.30
2019-01-23T09:09:18.413Z,-4.30
2019-01-23T09:11:45.243Z,-4.10
2019-01-23T09:14:11.793Z,-3.90
2019-01-23T09:16:38.322Z,-3.90
2019-01-23T09:19:04.916Z,-3.90
2019-01-23T09:21:31.634Z,-4.00
2019-01-23T09:23:58.984Z,-3.80
2019-01-23T09:26:25.604Z,-3.90
2019-01-23T09:28:52.125Z,-3.60
2019-01-23T09:31:24.443Z,-3.80
2019-01-23T09:33:57.712Z,-3.90
2019-01-23T09:36:29.421Z,-3.80
2019-01-23T09:39:16.387Z,-3.80
2019-01-23T09:41:49.922Z,-3.80
2019-01-23T09:44:37.140Z,-3.70
2019-01-23T09:47:07.684Z,-3.60
2019-01-23T09:49:50.506Z,-3.70
2019-01-23T09:52:32.794Z,-3.70
2019-01-23T09:54:59.342Z,-3.80
2019-01-23T09:57:26.064Z,-4.00
2019-01-23T09:59:52.608Z,-3.80
2019-01-23T10:02:19.133Z,-3.80
2019-01-23T10:04:45.785Z,-3.80
2019-01-23T10:07:12.319Z,-3.70
2019-01-23T10:09:38.904Z,-3.70
2019-01-23T10:12:05.530Z,-3.60
2019-01-23T10:14:32.264Z,-3.40
2019-01-23T10:16:59.621Z,-3.20
2019-01-23T10:19:26.399Z,-3.40
2019-01-23T10:21:53.149Z,-3.30
2019-01-23T10:24:19.769Z,-3.40
2019-01-23T10:26:46.527Z,-3.30
2019-01-23T10:29:13.147Z,-3.40
2019-01-23T10:31:39.905Z,-3.60
2019-01-23T10:34:07.316Z,-3.50
2019-01-23T10:36:33.976Z,-3.60
2019-01-23T10:39:00.606Z,-3.60
2019-01-23T10:41:27.151Z,-3.40
2019-01-23T10:43:53.677Z,-3.40
2019-01-23T10:46:20.342Z,-3.40
2019-01-23T10:48:46.951Z,-3.20
2019-01-23T10:51:13.817Z,-3.20
2019-01-23T10:53:40.434Z,-3.10
2019-01-23T10:56:06.981Z,-3.20
2019-01-23T10:58:33.510Z,-3.20
2019-01-23T11:01:00.157Z,-3.10
2019-01-23T11:03:26.980Z,-3.20
2019-01-23T11:05:53.541Z,-3.10
2019-01-23T11:08:20.064Z,-3.20
2019-01-23T11:10:46.625Z,-3.20
2019-01-23T11:13:13.249Z,-3.30
2019-01-23T11:15:39.824Z,-3.20
2019-01-23T11:18:06.456Z,-3.00
2019-01-23T11:20:32.908Z,-3.30
2019-01-23T11:22:59.427Z,-3.30
2019-01-23T11:25:26.077Z,-3.00
2019-01-23T11:27:52.650Z,-3.30
2019-01-23T11:30:24.296Z,-3.10
2019-01-23T11:32:51.062Z,-2.70
2019-01-23T11:35:17.686Z,-2.70
2019-01-23T11:37:45.452Z,-2.70
2019-01-23T11:40:17.960Z,-2.90
2019-01-23T11:42:44.403Z,-2.90
2019-01-23T11:45:11.829Z,-2.70
2019-01-23T11:47:38.682Z,-2.70
2019-01-23T11:50:09.018Z,-2.50
2019-01-23T11:52:36.465Z,-2.80
2019-01-23T11:55:04.593Z,-2.80
2019-01-23T11:57:31.258Z,-2.90
2019-01-23T11:59:57.978Z,-2.90
2019-01-23T12:02:30.695Z,-2.70
2019-01-23T12:04:53.868Z,-2.60
2019-01-23T12:07:20.629Z,-2.50
2019-01-23T12:09:47.334Z,-2.30
2019-01-23T12:12:13.981Z,-2.40
2019-01-23T12:14:40.495Z,-2.60
2019-01-23T12:17:07.158Z,-2.70
2019-01-23T12:19:33.694Z,-2.70
2019-01-23T12:22:00.235Z,-2.30
2019-01-23T12:24:26.669Z,-2.30
2019-01-23T12:26:53.225Z,-2.20
2019-01-23T12:29:19.783Z,-1.90
2019-01-23T12:31:46.448Z,-2.00
2019-01-23T12:34:12.972Z,-2.00
2019-01-23T12:36:39.736Z,-2.20
2019-01-23T12:39:08.134Z,-2.40
2019-01-23T12:41:34.673Z,-2.30
2019-01-23T12:44:01.207Z,-2.00
2019-01-23T12:46:27.865Z,-2.10
2019-01-23T12:48:54.488Z,-1.80
2019-01-23T12:51:21.145Z,-2.00
2019-01-23T12:53:47.761Z,-1.80
2019-01-23T12:56:14.394Z,-1.60
2019-01-23T12:58:41.050Z,-1.60
2019-01-23T13:01:07.845Z,-1.30
2019-01-23T13:03:34.605Z,-1.30
2019-01-23T13:06:01.370Z,-1.20
2019-01-23T13:08:27.960Z,-1.30
2019-01-23T13:10:54.889Z,-1.10
2019-01-23T13:13:23.892Z,-1.20
2019-01-23T13:15:53.058Z,-0.70
2019-01-23T13:18:19.752Z,-0.60
2019-01-23T13:20:46.674Z,-0.30
2019-01-23T13:23:19.459Z,-0.20
2019-01-23T13:25:41.875Z,-0.10
2019-01-23T13:28:09.656Z,0.00
2019-01-23T13:30:36.992Z,0.00
2019-01-23T13:33:04.573Z,0.00
2019-01-23T13:35:33.986Z,0.10
2019-01-23T13:38:01.965Z,0.50
2019-01-23T13:40:32.561Z,0.60
2019-01-23T13:43:00.210Z,0.80
2019-01-23T13:45:27.389Z,0.70
2019-01-23T13:47:54.626Z,0.70
2019-01-23T13:50:21.597Z,0.80
2019-01-23T13:52:48.670Z,0.90
2019-01-23T13:55:18.046Z,0.70
2019-01-23T13:57:44.883Z,0.90
2019-01-23T14:00:15.655Z,1.20
2019-01-23T14:02:43.168Z,1.30
2019-01-23T14:05:10.537Z,1.20
2019-01-23T14:07:38.406Z,1.40
2019-01-23T14:10:09.157Z,1.00
2019-01-23T14:12:35.778Z,0.60
2019-01-23T14:15:06.989Z,0.50
2019-01-23T14:17:34.524Z,0.50
2019-01-23T14:20:03.638Z,0.30
2019-01-23T14:22:31.493Z,0.10
2019-01-23T14:24:59.331Z,0.30
2019-01-23T14:27:27.028Z,0.20
2019-01-23T14:29:54.213Z,-0.20
2019-01-23T14:32:22.077Z,-0.30
2019-01-23T14:34:49.729Z,-0.30
2019-01-23T14:37:17.469Z,-0.10
2019-01-23T14:39:45.290Z,-0.60
2019-01-23T14:42:12.152Z,-0.80
2019-01-23T14:44:39.945Z,-0.90
2019-01-23T14:47:07.950Z,-0.90
2019-01-23T14:49:35.937Z,-1.20
2019-01-23T14:52:03.846Z,-1.40
2019-01-23T14:54:30.872Z,-1.40
2019-01-23T14:56:58.196Z,-1.20
2019-01-23T14:59:25.183Z,-1.20
2019-01-23T15:01:52.901Z,-1.30
2019-01-23T15:04:21.429Z,-1.40
2019-01-23T15:06:49.558Z,-1.50
2019-01-23T15:09:17.368Z,-1.80
2019-01-23T15:11:45.337Z,-1.80
2019-01-23T15:14:12.768Z,-1.90
2019-01-23T15:16:40.666Z,-2.10
2019-01-23T15:19:08.382Z,-2.20
2019-01-23T15:21:36.306Z,-2.20
2019-01-23T15:24:04.318Z,-2.10
2019-01-23T15:26:32.172Z,-2.30
2019-01-23T15:29:00.561Z,-2.40
2019-01-23T15:31:28.787Z,-2.50
2019-01-23T15:33:57.314Z,-2.40
2019-01-23T15:36:25.540Z,-2.30
2019-01-23T15:38:53.876Z,-2.40
2019-01-23T15:41:22.352Z,-2.50
2019-01-23T15:43:50.985Z,-2.50
2019-01-23T15:46:19.385Z,-2.50
2019-01-23T15:48:48.513Z,-2.60
2019-01-23T15:51:17.006Z,-2.70
2019-01-23T15:53:45.332Z,-2.40
2019-01-23T15:56:14.572Z,-2.40
2019-01-23T15:58:42.598Z,-2.40
2019-01-23T16:01:10.931Z,-2.40
2019-01-23T16:03:39.095Z,-2.60
2019-01-23T16:06:07.414Z,-2.70
2019-01-23T16:08:35.294Z,-2.40
2019-01-23T16:11:03.455Z,-2.40
2019-01-23T16:13:31.332Z,-2.40
2019-01-23T16:15:59.736Z,-2.30
2019-01-23T16:18:27.726Z,-2.60
2019-01-23T16:20:55.740Z,-2.80
2019-01-23T16:23:23.811Z,-2.90
2019-01-23T16:25:52.921Z,-2.70
2019-01-23T16:28:20.931Z,-2.80
2019-01-23T16:30:49.159Z,-2.90
2019-01-23T16:33:17.478Z,-2.80
2019-01-23T16:35:47.233Z,-3.00
2019-01-23T16:38:15.978Z,-2.90
2019-01-23T16:40:44.112Z,-2.70
2019-01-23T16:43:13.059Z,-2.90
2019-01-23T16:45:41.877Z,-2.90
2019-01-23T16:48:10.165Z,-3.00
2019-01-23T16:50:38.587Z,-3.20
2019-01-23T16:53:06.668Z,-3.30
2019-01-23T16:55:34.890Z,-3.20
2019-01-23T16:58:04.022Z,-3.10
2019-01-23T17:00:32.564Z,-3.30
2019-01-23T17:03:02.340Z,-3.40
2019-01-23T17:05:31.520Z,-3.50
2019-01-23T17:08:01.073Z,-3.30
2019-01-23T17:10:29.206Z,-3.50
2019-01-23T17:12:57.534Z,-3.50
2019-01-23T17:15:26.070Z,-3.60
2019-01-23T17:17:54.801Z,-3.40
2019-01-23T17:20:25.652Z,-3.40
2019-01-23T17:22:54.118Z,-3.40
2019-01-23T17:25:22.441Z,-3.50
2019-01-23T17:27:51.080Z,-3.60
2019-01-23T17:30:19.613Z,-3.70
2019-01-23T17:32:49.226Z,-3.70
2019-01-23T17:35:18.663Z,-3.70
2019-01-23T17:37:47.101Z,-3.70
2019-01-23T17:40:18.323Z,-3.80
2019-01-23T17:42:46.949Z,-3.80
2019-01-23T17:45:18.002Z,-3.80
2019-01-23T17:47:46.910Z,-3.70
2019-01-23T17:50:17.456Z,-3.60
2019-01-23T17:52:45.927Z,-3.70
2019-01-23T17:55:28.860Z,-3.80
2019-01-23T17:57:58.857Z,-3.90
2019-01-23T18:00:30.415Z,-3.90
2019-01-23T18:02:58.693Z,-3.80
2019-01-23T18:05:27.646Z,-3.90
2019-01-23T18:07:56.060Z,-4.00
2019-01-23T18:10:24.697Z,-3.90
2019-01-23T18:12:53.321Z,-3.70
2019-01-23T18:15:27.045Z,-4.10
2019-01-23T18:17:56.121Z,-4.10
2019-01-23T18:20:26.680Z,-4.20
2019-01-23T18:22:57.026Z,-4.10
2019-01-23T18:25:26.213Z,-4.20
2019-01-23T18:27:54.895Z,-4.10
2019-01-23T18:30:37.806Z,-3.90
2019-01-23T18:33:08.939Z,-4.10
2019-01-23T18:36:04.415Z,-4.10
2019-01-23T18:38:44.404Z,-4.20
2019-01-23T18:41:27.830Z,-4.20
2019-01-23T18:44:04.832Z,-4.10
2019-01-23T18:46:47.799Z,-4.30
2019-01-23T18:49:39.878Z,-4.40
2019-01-23T18:52:13.879Z,-4.30
2019-01-23T18:54:43.236Z,-4.20
2019-01-23T18:57:20.057Z,-4.30
2019-01-23T18:59:48.688Z,-4.40
2019-01-23T19:02:19.515Z,-4.60
2019-01-23T19:04:49.640Z,-4.50
2019-01-23T19:07:19.460Z,-4.50
2019-01-23T19:09:49.011Z,-4.60
2019-01-23T19:12:18.055Z,-4.80
2019-01-23T19:14:47.097Z,-4.70
2019-01-23T19:17:15.986Z,-4.70
2019-01-23T19:19:44.921Z,-4.70
2019-01-23T19:22:13.865Z,-4.50
2019-01-23T19:24:42.813Z,-4.60
2019-01-23T19:27:11.963Z,-4.70
2019-01-23T19:29:41.097Z,-4.70
2019-01-23T19:32:10.252Z,-4.90
2019-01-23T19:34:39.347Z,-4.60
2019-01-23T19:37:08.129Z,-4.50
2019-01-23T19:39:37.016Z,-4.50
2019-01-23T19:42:06.169Z,-4.50
2019-01-23T19:44:35.117Z,-4.40
2019-01-23T19:47:04.544Z,-4.50
2019-01-23T19:49:35.324Z,-4.50
2019-01-23T19:52:04.453Z,-4.40
2019-01-23T19:54:33.477Z,-4.50
2019-01-23T19:57:02.258Z,-4.50
2019-01-23T19:59:32.865Z,-4.50
2019-01-23T20:02:02.029Z,-4.50
2019-01-23T20:04:31.720Z,-4.50
2019-01-23T20:07:00.896Z,-4.40
2019-01-23T20:09:29.939Z,-4.40
2019-01-23T20:12:00.365Z,-4.50
2019-01-23T20:14:29.837Z,-4.40
2019-01-23T20:16:58.907Z,-4.40
2019-01-23T20:19:28.365Z,-4.20
2019-01-23T20:21:57.313Z,-4.40
2019-01-23T20:24:26.278Z,-4.30
2019-01-23T20:26:55.410Z,-4.40
2019-01-23T20:29:24.048Z,-4.40
2019-01-23T20:31:52.979Z,-4.50
2019-01-23T20:34:22.361Z,-4.30
2019-01-23T20:36:51.420Z,-4.30
2019-01-23T20:39:20.473Z,-4.40
2019-01-23T20:41:49.676Z,-4.30
2019-01-23T20:44:19.548Z,-4.40
2019-01-23T20:46:49.034Z,-4.30
2019-01-23T20:49:19.110Z,-4.30
2019-01-23T20:51:48.921Z,-4.40
2019-01-23T20:54:19.231Z,-4.40
2019-01-23T20:56:48.502Z,-4.40
2019-01-23T20:59:17.952Z,-4.40
2019-01-23T21:01:47.930Z,-4.50
2019-01-23T21:04:17.690Z,-4.60
2019-01-23T21:06:46.949Z,-4.60
2019-01-23T21:09:16.152Z,-4.60
2019-01-23T21:11:45.141Z,-4.50
2019-01-23T21:14:14.256Z,-4.70
2019-01-23T21:16:43.401Z,-4.60
2019-01-23T21:19:12.244Z,-4.50
2019-01-23T21:21:41.394Z,-4.40
2019-01-23T21:24:10.493Z,-4.40
2019-01-23T21:26:39.335Z,-4.40
2019-01-23T21:29:09.923Z,-4.40
2019-01-23T21:31:38.463Z,-4.50
2019-01-23T21:34:08.060Z,-4.60
2019-01-23T21:36:36.912Z,-4.70
2019-01-23T21:39:08.718Z,-4.70
2019-01-23T21:41:37.344Z,-4.70
2019-01-23T21:44:06.138Z,-4.60
2019-01-23T21:46:35.087Z,-4.60
2019-01-23T21:49:04.372Z,-4.50
2019-01-23T21:51:33.091Z,-4.60
2019-01-23T21:54:01.572Z,-4.40
2019-01-23T21:56:30.196Z,-4.40
2019-01-23T21:58:59.119Z,-4.30
2019-01-23T22:01:27.751Z,-4.20
2019-01-23T22:03:56.894Z,-4.30
2019-01-23T22:06:25.152Z,-4.40
2019-01-23T22:08:54.106Z,-4.30
2019-01-23T22:11:22.947Z,-4.40
2019-01-23T22:13:51.180Z,-4.40
2019-01-23T22:16:18.949Z,-4.50
2019-01-23T22:18:47.668Z,-4.30
2019-01-23T22:21:16.059Z,-4.50
2019-01-23T22:23:43.849Z,-4.50
2019-01-23T22:26:12.465Z,-4.40
2019-01-23T22:28:40.976Z,-4.40
2019-01-23T22:31:08.711Z,-4.40
2019-01-23T22:33:36.204Z,-4.30
2019-01-23T22:36:03.219Z,-4.20
2019-01-23T22:38:29.761Z,-4.20
2019-01-23T22:40:56.380Z,-4.40
2019-01-23T22:43:23.121Z,-4.40
2019-01-23T22:45:49.813Z,-4.30
2019-01-23T22:48:16.883Z,-4.40
2019-01-23T22:50:44.300Z,-4.40
2019-01-23T22:53:11.182Z,-4.30
2019-01-23T22:55:37.798Z,-4.30
2019-01-23T22:58:04.550Z,-4.40
2019-01-23T23:00:44.166Z,-4.40
2019-01-23T23:03:12.722Z,-4.40
2019-01-23T23:05:39.551Z,-4.50
2019-01-23T23:08:06.217Z,-4.60
2019-01-23T23:10:34.337Z,-4.40
2019-01-23T23:13:03.013Z,-4.40
2019-01-23T23:15:29.639Z,-4.40
2019-01-23T23:17:56.298Z,-4.10
2019-01-23T23:20:22.829Z,-4.20
2019-01-23T23:22:49.572Z,-4.20
2019-01-23T23:25:16.197Z,-4.10
2019-01-23T23:27:42.941Z,-4.20
2019-01-23T23:30:13.372Z,-4.20
2019-01-23T23:32:40.154Z,-4.40
2019-01-23T23:35:06.899Z,-4.40
2019-01-23T23:37:33.441Z,-4.30
2019-01-23T23:40:00.252Z,-4.30
2019-01-23T23:42:26.810Z,-4.20
2019-01-23T23:44:53.333Z,-4.10
2019-01-23T23:47:19.880Z,-4.20
2019-01-23T23:49:46.404Z,-4.20
2019-01-23T23:52:12.944Z,-4.10
2019-01-23T23:54:39.497Z,-4.20
2019-01-23T23:57:06.018Z,-4.20
2019-01-23T23:59:32.568Z,-4.30
